createdAt,value
2019-02-16T00:00:05.730Z,6.13
2019-02-16T00:02:34.342Z,6.16
2019-02-16T00:05:03.113Z,6.22
2019-02-16T00:07:31.761Z,6.31
2019-02-16T00:10:00.352Z,6.35
2019-02-16T00:12:28.990Z,6.39
2019-02-16T00:14:57.622Z,6.42
2019-02-16T00:17:26.226Z,6.43
2019-02-16T00:19:54.971Z,6.43
2019-02-16T00:22:23.776Z,6.48
2019-02-16T00:24:52.343Z,6.56
2019-02-16T00:27:20.953Z,6.64
2019-02-16T00:29:49.839Z,6.67
2019-02-16T00:32:18.569Z,6.62
2019-02-16T00:34:47.135Z,6.61
2019-02-16T00:37:15.850Z,6.60
2019-02-16T00:39:44.355Z,6.55
2019-02-16T00:42:13.130Z,6.41
2019-02-16T00:44:41.857Z,6.41
2019-02-16T00:47:10.453Z,6.28
2019-02-16T00:49:39.067Z,6.14
2019-02-16T00:52:07.743Z,5.97
2019-02-16T00:54:36.358Z,5.86
2019-02-16T00:57:05.052Z,5.82
2019-02-16T00:59:33.688Z,5.75
2019-02-16T01:02:02.443Z,5.65
2019-02-16T01:04:31.020Z,5.54
2019-02-16T01:06:59.557Z,5.46
2019-02-16T01:09:28.122Z,5.43
2019-02-16T01:11:56.975Z,5.47
2019-02-16T01:14:25.509Z,5.50
2019-02-16T01:16:54.112Z,5.61
2019-02-16T01:19:22.794Z,5.73
2019-02-16T01:21:51.409Z,5.87
2019-02-16T01:24:20.015Z,6.02
2019-02-16T01:26:48.814Z,6.15
2019-02-16T01:29:17.530Z,6.22
2019-02-16T01:31:46.083Z,6.35
2019-02-16T01:34:14.722Z,6.59
2019-02-16T01:36:43.508Z,6.84
2019-02-16T01:39:12.172Z,7.03
2019-02-16T01:41:40.782Z,7.17
2019-02-16T01:44:09.439Z,7.24
2019-02-16T01:46:38.235Z,7.29
2019-02-16T01:49:07.271Z,7.29
2019-02-16T01:51:36.130Z,7.27
2019-02-16T01:54:04.974Z,7.18
2019-02-16T01:56:33.610Z,7.15
2019-02-16T01:59:02.219Z,7.11
2019-02-16T02:01:30.822Z,7.04
2019-02-16T02:03:59.379Z,7.06
2019-02-16T02:06:28.028Z,7.10
2019-02-16T02:08:56.672Z,7.16
2019-02-16T02:11:25.290Z,7.22
2019-02-16T02:13:54.021Z,7.32
2019-02-16T02:16:22.632Z,7.39
2019-02-16T02:18:51.224Z,7.43
2019-02-16T02:21:19.999Z,7.47
2019-02-16T02:23:48.690Z,7.48
2019-02-16T02:26:17.546Z,7.45
2019-02-16T02:28:46.086Z,7.47
2019-02-16T02:31:14.816Z,7.46
2019-02-16T02:33:43.849Z,7.45
2019-02-16T02:36:12.497Z,7.40
2019-02-16T02:38:41.045Z,7.38
2019-02-16T02:41:09.724Z,7.37
2019-02-16T02:43:38.377Z,7.39
2019-02-16T02:46:06.987Z,7.39
2019-02-16T02:48:35.536Z,7.44
2019-02-16T02:51:04.222Z,7.46
2019-02-16T02:53:32.834Z,7.52
2019-02-16T02:56:01.452Z,7.54
2019-02-16T02:58:30.140Z,7.54
2019-02-16T03:00:58.816Z,7.52
2019-02-16T03:03:27.474Z,7.46
2019-02-16T03:05:56.065Z,7.43
2019-02-16T03:08:24.838Z,7.38
2019-02-16T03:10:53.455Z,7.32
2019-02-16T03:13:22.093Z,7.27
2019-02-16T03:15:50.698Z,7.29
2019-02-16T03:18:19.302Z,7.24
2019-02-16T03:20:48.142Z,7.18
2019-02-16T03:23:19.168Z,7.20
2019-02-16T03:25:50.683Z,7.29
2019-02-16T03:28:31.083Z,7.35
2019-02-16T03:31:22.494Z,7.38
2019-02-16T03:33:56.614Z,7.42
2019-02-16T03:36:57.273Z,7.40
2019-02-16T03:39:26.093Z,7.40
2019-02-16T03:41:54.690Z,7.38
2019-02-16T03:44:23.329Z,7.35
2019-02-16T03:46:51.981Z,7.36
2019-02-16T03:49:20.622Z,7.40
2019-02-16T03:51:49.228Z,7.45
2019-02-16T03:54:17.945Z,7.52
2019-02-16T03:56:46.677Z,7.57
2019-02-16T03:59:15.212Z,7.63
2019-02-16T04:01:43.763Z,7.66
2019-02-16T04:04:12.476Z,7.64
2019-02-16T04:06:41.090Z,7.59
2019-02-16T04:09:09.718Z,7.54
2019-02-16T04:11:38.326Z,7.56
2019-02-16T04:14:06.914Z,7.50
2019-02-16T04:16:35.530Z,7.40
2019-02-16T04:19:04.177Z,7.27
2019-02-16T04:21:32.814Z,7.09
2019-02-16T04:24:01.363Z,6.87
2019-02-16T04:26:29.994Z,6.65
2019-02-16T04:28:58.615Z,6.40
2019-02-16T04:31:27.262Z,6.15
2019-02-16T04:33:55.976Z,5.93
2019-02-16T04:36:24.575Z,5.77
2019-02-16T04:38:53.151Z,5.65
2019-02-16T04:41:21.750Z,5.47
2019-02-16T04:43:50.358Z,5.29
2019-02-16T04:46:18.964Z,5.09
2019-02-16T04:48:47.623Z,4.88
2019-02-16T04:51:16.338Z,4.68
2019-02-16T04:53:45.028Z,4.47
2019-02-16T04:56:13.677Z,4.29
2019-02-16T04:58:42.289Z,4.07
2019-02-16T05:01:10.989Z,3.87
2019-02-16T05:03:39.575Z,3.69
2019-02-16T05:06:08.184Z,3.53
2019-02-16T05:08:36.750Z,3.38
2019-02-16T05:11:05.352Z,3.24
2019-02-16T05:13:34.103Z,3.11
2019-02-16T05:16:03.022Z,2.99
2019-02-16T05:18:31.591Z,2.88
2019-02-16T05:21:00.304Z,2.76
2019-02-16T05:23:28.951Z,2.67
2019-02-16T05:25:57.630Z,2.61
2019-02-16T05:28:26.263Z,2.56
2019-02-16T05:30:54.869Z,2.54
2019-02-16T05:33:23.628Z,2.53
2019-02-16T05:35:52.377Z,2.53
2019-02-16T05:38:20.968Z,2.50
2019-02-16T05:40:49.645Z,2.45
2019-02-16T05:43:18.335Z,2.38
2019-02-16T05:45:47.013Z,2.35
2019-02-16T05:48:15.712Z,2.27
2019-02-16T05:50:44.321Z,2.22
2019-02-16T05:53:13.036Z,2.17
2019-02-16T05:55:41.655Z,2.09
2019-02-16T05:58:10.264Z,2.03
2019-02-16T06:00:38.795Z,1.97
2019-02-16T06:03:07.894Z,1.89
2019-02-16T06:05:36.591Z,1.83
2019-02-16T06:08:05.387Z,1.77
2019-02-16T06:10:34.215Z,1.73
2019-02-16T06:13:02.917Z,1.69
2019-02-16T06:15:31.550Z,1.66
2019-02-16T06:18:00.218Z,1.68
2019-02-16T06:20:28.789Z,1.70
2019-02-16T06:23:03.867Z,1.73
2019-02-16T06:25:27.689Z,1.76
2019-02-16T06:27:56.429Z,1.76
2019-02-16T06:30:24.971Z,1.79
2019-02-16T06:32:53.589Z,1.80
2019-02-16T06:35:26.557Z,1.81
2019-02-16T06:37:55.192Z,1.81
2019-02-16T06:40:23.803Z,1.83
2019-02-16T06:42:52.436Z,1.84
2019-02-16T06:45:21.043Z,1.84
2019-02-16T06:47:49.659Z,1.81
2019-02-16T06:50:18.278Z,1.79
2019-02-16T06:52:47.231Z,1.82
2019-02-16T06:55:15.942Z,1.80
2019-02-16T06:57:46.142Z,1.79
2019-02-16T07:00:16.332Z,1.77
2019-02-16T07:02:44.947Z,1.77
2019-02-16T07:05:13.681Z,1.75
2019-02-16T07:07:42.415Z,1.76
2019-02-16T07:10:11.035Z,1.78
2019-02-16T07:12:39.608Z,1.88
2019-02-16T07:15:08.392Z,2.10
2019-02-16T07:17:41.563Z,2.37
2019-02-16T07:20:10.456Z,2.86
2019-02-16T07:22:39.069Z,3.35
2019-02-16T07:25:08.616Z,3.83
2019-02-16T07:27:37.236Z,4.24
2019-02-16T07:30:08.613Z,4.50
2019-02-16T07:32:37.229Z,4.62
2019-02-16T07:35:07.228Z,4.63
2019-02-16T07:37:35.862Z,4.57
2019-02-16T07:40:06.002Z,4.47
2019-02-16T07:42:48.539Z,4.36
2019-02-16T07:45:19.545Z,4.24
2019-02-16T07:47:49.996Z,4.13
2019-02-16T07:50:23.119Z,4.03
2019-02-16T07:52:56.316Z,3.96
2019-02-16T07:55:26.496Z,3.88
2019-02-16T07:57:56.752Z,3.85
2019-02-16T08:00:26.974Z,4.14
2019-02-16T08:02:59.991Z,5.07
2019-02-16T08:05:48.535Z,6.27
2019-02-16T08:08:18.818Z,7.49
2019-02-16T08:10:49.160Z,8.74
2019-02-16T08:13:35.792Z,9.53
2019-02-16T08:16:21.143Z,9.77
2019-02-16T08:18:54.161Z,9.96
2019-02-16T08:21:30.346Z,10.45
2019-02-16T08:24:15.977Z,11.05
2019-02-16T08:27:04.389Z,11.75
2019-02-16T08:29:34.684Z,12.49
2019-02-16T08:32:08.348Z,13.16
2019-02-16T08:34:47.567Z,13.66
2019-02-16T08:37:23.808Z,14.15
2019-02-16T08:40:09.070Z,14.60
2019-02-16T08:42:56.091Z,14.94
2019-02-16T08:45:26.694Z,15.17
2019-02-16T08:47:59.956Z,15.31
2019-02-16T08:50:35.997Z,15.57
2019-02-16T08:53:06.279Z,15.78
2019-02-16T08:55:52.855Z,16.00
2019-02-16T08:58:39.246Z,16.17
2019-02-16T09:01:20.133Z,16.42
2019-02-16T09:03:53.280Z,16.58
2019-02-16T09:06:23.678Z,16.63
2019-02-16T09:08:54.112Z,16.89
2019-02-16T09:11:33.257Z,17.04
2019-02-16T09:14:06.549Z,17.32
2019-02-16T09:16:39.868Z,17.63
2019-02-16T09:19:26.594Z,17.73
2019-02-16T09:22:02.542Z,17.59
2019-02-16T09:24:32.773Z,17.73
2019-02-16T09:27:10.623Z,17.89
2019-02-16T09:29:44.777Z,18.02
2019-02-16T09:32:15.310Z,18.05
2019-02-16T09:34:51.745Z,17.93
2019-02-16T09:37:22.233Z,17.94
2019-02-16T09:39:52.493Z,18.04
2019-02-16T09:42:39.205Z,18.16
2019-02-16T09:45:26.427Z,18.20
2019-02-16T09:47:56.678Z,18.14
2019-02-16T09:50:28.230Z,18.08
2019-02-16T09:53:07.640Z,18.03
2019-02-16T09:55:54.418Z,18.01
2019-02-16T09:58:27.395Z,17.98
2019-02-16T10:00:58.164Z,17.99
2019-02-16T10:03:47.140Z,17.83
2019-02-16T10:06:20.455Z,17.61
2019-02-16T10:08:50.952Z,17.61
2019-02-16T10:11:39.536Z,17.63
2019-02-16T10:14:12.493Z,17.62
2019-02-16T10:16:42.796Z,17.79
2019-02-16T10:19:25.038Z,17.93
2019-02-16T10:21:58.117Z,18.05
2019-02-16T10:24:34.173Z,18.25
2019-02-16T10:27:07.052Z,18.39
2019-02-16T10:29:53.516Z,18.50
2019-02-16T10:32:23.764Z,18.48
2019-02-16T10:34:56.547Z,18.47
2019-02-16T10:37:26.805Z,18.44
2019-02-16T10:40:02.967Z,18.50
2019-02-16T10:42:35.931Z,18.43
2019-02-16T10:45:09.726Z,18.33
2019-02-16T10:47:40.116Z,18.25
2019-02-16T10:50:13.400Z,18.21
2019-02-16T10:52:52.467Z,18.19
2019-02-16T10:55:22.770Z,18.27
2019-02-16T10:57:53.027Z,18.41
2019-02-16T11:00:35.647Z,18.20
2019-02-16T11:03:11.851Z,18.03
2019-02-16T11:05:48.301Z,17.94
2019-02-16T11:08:19.062Z,17.78
2019-02-16T11:10:55.293Z,17.67
2019-02-16T11:13:31.536Z,17.73
2019-02-16T11:16:04.781Z,17.91
2019-02-16T11:18:47.358Z,18.01
2019-02-16T11:21:23.544Z,17.96
2019-02-16T11:24:06.098Z,17.93
2019-02-16T11:26:52.820Z,17.99
2019-02-16T11:29:23.116Z,18.04
2019-02-16T11:31:53.545Z,18.05
2019-02-16T11:34:26.616Z,18.17
2019-02-16T11:37:03.466Z,18.31
2019-02-16T11:39:39.685Z,18.34
2019-02-16T11:42:28.557Z,18.35
2019-02-16T11:44:58.813Z,18.52
2019-02-16T11:47:32.463Z,18.61
2019-02-16T11:50:19.078Z,18.52
2019-02-16T11:53:06.061Z,18.39
2019-02-16T11:55:39.388Z,18.48
2019-02-16T11:58:09.638Z,18.58
2019-02-16T12:00:45.871Z,18.70
2019-02-16T12:03:16.605Z,18.99
2019-02-16T12:05:46.896Z,19.14
2019-02-16T12:08:17.183Z,19.18
2019-02-16T12:10:56.798Z,19.17
2019-02-16T12:13:32.882Z,19.23
2019-02-16T12:16:15.106Z,19.07
2019-02-16T12:19:01.756Z,19.01
2019-02-16T12:21:38.710Z,19.13
2019-02-16T12:24:08.902Z,19.14
2019-02-16T12:26:39.278Z,19.20
2019-02-16T12:29:09.482Z,19.20
2019-02-16T12:31:48.646Z,19.25
2019-02-16T12:34:30.734Z,19.34
2019-02-16T12:37:06.603Z,19.22
2019-02-16T12:39:55.467Z,19.08
2019-02-16T12:42:28.321Z,19.04
2019-02-16T12:45:07.738Z,18.82
2019-02-16T12:47:50.146Z,18.67
2019-02-16T12:50:20.402Z,18.63
2019-02-16T12:52:53.457Z,18.73
2019-02-16T12:55:35.726Z,18.75
2019-02-16T12:58:06.077Z,18.85
2019-02-16T13:00:41.908Z,18.84
2019-02-16T13:03:12.540Z,18.75
2019-02-16T13:05:59.150Z,18.73
2019-02-16T13:08:32.296Z,18.78
2019-02-16T13:11:05.423Z,18.85
2019-02-16T13:13:35.677Z,18.90
2019-02-16T13:16:08.766Z,18.99
2019-02-16T13:18:44.764Z,19.17
2019-02-16T13:21:15.014Z,19.13
2019-02-16T13:23:45.272Z,18.91
2019-02-16T13:26:18.561Z,18.73
2019-02-16T13:28:51.820Z,18.56
2019-02-16T13:31:28.557Z,18.43
2019-02-16T13:34:14.896Z,18.36
2019-02-16T13:36:57.543Z,18.36
2019-02-16T13:39:27.761Z,18.26
2019-02-16T13:41:58.054Z,17.98
2019-02-16T13:44:37.598Z,17.77
2019-02-16T13:47:07.882Z,17.53
2019-02-16T13:49:38.778Z,17.21
2019-02-16T13:52:24.498Z,16.97
2019-02-16T13:55:14.185Z,16.77
2019-02-16T13:57:50.449Z,16.59
2019-02-16T14:00:35.747Z,16.41
2019-02-16T14:03:06.045Z,16.27
2019-02-16T14:05:45.652Z,16.15
2019-02-16T14:08:21.918Z,16.04
2019-02-16T14:10:52.179Z,15.90
2019-02-16T14:13:31.368Z,15.81
2019-02-16T14:16:19.948Z,15.74
2019-02-16T14:18:48.530Z,15.67
2019-02-16T14:21:17.166Z,15.59
2019-02-16T14:23:45.843Z,15.51
2019-02-16T14:26:14.462Z,15.44
2019-02-16T14:28:43.036Z,15.42
2019-02-16T14:31:12.968Z,15.38
2019-02-16T14:33:41.578Z,15.37
2019-02-16T14:36:10.300Z,15.35
2019-02-16T14:38:40.723Z,15.28
2019-02-16T14:41:09.420Z,15.25
2019-02-16T14:43:38.095Z,15.17
2019-02-16T14:46:06.987Z,15.13
2019-02-16T14:48:35.605Z,15.09
2019-02-16T14:51:04.192Z,15.06
2019-02-16T14:53:32.777Z,15.04
2019-02-16T14:56:01.396Z,15.00
2019-02-16T14:58:30.112Z,14.95
2019-02-16T15:00:59.109Z,14.90
2019-02-16T15:03:27.760Z,14.83
2019-02-16T15:05:56.454Z,14.78
2019-02-16T15:08:25.398Z,14.73
2019-02-16T15:10:54.254Z,14.67
2019-02-16T15:13:22.827Z,14.61
2019-02-16T15:15:51.453Z,14.57
2019-02-16T15:18:19.942Z,14.49
2019-02-16T15:20:48.621Z,14.41
2019-02-16T15:23:17.402Z,14.32
2019-02-16T15:25:46.026Z,14.25
2019-02-16T15:28:14.745Z,14.18
2019-02-16T15:30:43.329Z,14.15
2019-02-16T15:33:11.872Z,14.12
2019-02-16T15:35:40.867Z,14.07
2019-02-16T15:38:09.527Z,14.04
2019-02-16T15:40:38.075Z,14.00
2019-02-16T15:43:06.689Z,13.97
2019-02-16T15:45:35.377Z,13.91
2019-02-16T15:48:04.816Z,13.84
2019-02-16T15:50:33.501Z,13.77
2019-02-16T15:53:02.222Z,13.71
2019-02-16T15:55:30.872Z,13.64
2019-02-16T15:57:59.541Z,13.55
2019-02-16T16:00:29.068Z,13.45
2019-02-16T16:02:59.624Z,13.35
2019-02-16T16:05:28.251Z,13.25
2019-02-16T16:08:10.850Z,13.14
2019-02-16T16:10:41.108Z,13.01
2019-02-16T16:13:14.573Z,12.90
2019-02-16T16:15:44.975Z,12.81
2019-02-16T16:18:33.416Z,12.77
2019-02-16T16:21:15.649Z,12.73
2019-02-16T16:24:02.137Z,12.65
2019-02-16T16:26:48.958Z,12.55
2019-02-16T16:29:28.136Z,12.41
2019-02-16T16:32:04.261Z,12.20
2019-02-16T16:34:43.737Z,12.03
2019-02-16T16:37:30.099Z,11.85
2019-02-16T16:40:00.389Z,11.72
2019-02-16T16:42:42.541Z,11.58
2019-02-16T16:45:24.126Z,11.41
2019-02-16T16:48:06.337Z,11.25
2019-02-16T16:50:36.959Z,11.06
2019-02-16T16:53:07.228Z,10.83
2019-02-16T16:55:43.291Z,10.60
2019-02-16T16:58:29.511Z,10.36
2019-02-16T17:01:17.697Z,10.12
2019-02-16T17:03:56.994Z,9.87
2019-02-16T17:06:35.963Z,9.62
2019-02-16T17:09:08.054Z,9.41
2019-02-16T17:11:44.250Z,9.25
2019-02-16T17:14:17.033Z,9.14
2019-02-16T17:16:53.363Z,9.00
2019-02-16T17:19:29.632Z,8.87
2019-02-16T17:22:12.479Z,8.73
2019-02-16T17:24:42.694Z,8.59
2019-02-16T17:27:15.995Z,8.48
2019-02-16T17:29:46.268Z,8.41
2019-02-16T17:32:16.617Z,8.34
2019-02-16T17:34:49.731Z,8.26
2019-02-16T17:37:22.717Z,8.18
2019-02-16T17:39:53.211Z,8.10
2019-02-16T17:42:39.482Z,7.98
2019-02-16T17:45:17.230Z,7.86
2019-02-16T17:47:50.564Z,7.71
2019-02-16T17:50:39.229Z,7.57
2019-02-16T17:53:27.476Z,7.43
2019-02-16T17:56:03.593Z,7.29
2019-02-16T17:58:36.310Z,7.14
2019-02-16T18:01:06.627Z,7.01
2019-02-16T18:03:45.734Z,6.87
2019-02-16T18:06:21.861Z,6.75
2019-02-16T18:08:58.250Z,6.63
2019-02-16T18:11:28.851Z,6.50
2019-02-16T18:14:07.834Z,6.38
2019-02-16T18:16:56.438Z,6.28
2019-02-16T18:19:26.688Z,6.15
2019-02-16T18:21:57.283Z,6.03
2019-02-16T18:24:44.150Z,5.93
2019-02-16T18:27:14.388Z,5.82
2019-02-16T18:29:59.693Z,5.72
2019-02-16T18:32:31.558Z,5.64
2019-02-16T18:35:08.404Z,5.56
2019-02-16T18:37:51.045Z,5.47
2019-02-16T18:40:30.463Z,5.39
2019-02-16T18:43:00.841Z,5.29
2019-02-16T18:45:40.118Z,5.22
2019-02-16T18:48:13.055Z,5.15
2019-02-16T18:50:43.337Z,5.11
2019-02-16T18:53:22.341Z,5.06
2019-02-16T18:55:52.580Z,5.01
2019-02-16T18:58:25.687Z,4.98
2019-02-16T19:00:56.140Z,4.94
2019-02-16T19:03:35.214Z,4.89
2019-02-16T19:06:05.526Z,4.85
2019-02-16T19:08:35.966Z,4.80
2019-02-16T19:11:22.534Z,4.76
2019-02-16T19:13:58.433Z,4.71
2019-02-16T19:16:37.592Z,4.66
2019-02-16T19:19:13.816Z,4.62
2019-02-16T19:21:47.130Z,4.56
2019-02-16T19:24:17.780Z,4.51
2019-02-16T19:26:48.072Z,4.47
2019-02-16T19:29:27.701Z,4.44
2019-02-16T19:31:57.996Z,4.41
2019-02-16T19:34:28.461Z,4.37
2019-02-16T19:37:07.829Z,4.32
2019-02-16T19:39:38.081Z,4.28
2019-02-16T19:42:08.377Z,4.23
2019-02-16T19:44:38.632Z,4.21
2019-02-16T19:47:11.839Z,4.18
2019-02-16T19:49:57.173Z,4.14
2019-02-16T19:52:27.569Z,4.11
2019-02-16T19:54:57.801Z,4.06
2019-02-16T19:57:31.005Z,4.02
2019-02-16T20:00:17.957Z,3.99
2019-02-16T20:03:03.429Z,3.96
2019-02-16T20:05:33.685Z,3.91
2019-02-16T20:08:09.860Z,3.86
2019-02-16T20:10:56.491Z,3.83
2019-02-16T20:13:29.743Z,3.78
2019-02-16T20:16:02.970Z,3.73
2019-02-16T20:18:51.700Z,3.70
2019-02-16T20:21:40.222Z,3.66
2019-02-16T20:24:13.239Z,3.63
2019-02-16T20:26:43.851Z,3.62
2019-02-16T20:29:14.141Z,3.58
2019-02-16T20:32:00.833Z,3.57
2019-02-16T20:34:31.111Z,3.55
2019-02-16T20:37:07.391Z,3.53
2019-02-16T20:39:43.819Z,3.50
2019-02-16T20:42:14.105Z,3.45
2019-02-16T20:44:47.062Z,3.43
2019-02-16T20:47:26.527Z,3.39
2019-02-16T20:49:59.586Z,3.36
2019-02-16T20:52:32.908Z,3.32
2019-02-16T20:55:03.094Z,3.27
2019-02-16T20:57:33.352Z,3.26
2019-02-16T21:00:06.247Z,3.23
2019-02-16T21:02:36.492Z,3.23
2019-02-16T21:05:25.390Z,3.22
2019-02-16T21:07:55.744Z,3.20
2019-02-16T21:10:26.021Z,3.18
2019-02-16T21:12:56.270Z,3.15
2019-02-16T21:15:26.576Z,3.12
2019-02-16T21:17:57.544Z,3.09
2019-02-16T21:20:44.233Z,3.07
2019-02-16T21:23:30.937Z,3.02
2019-02-16T21:26:04.114Z,2.97
2019-02-16T21:28:37.248Z,2.92
2019-02-16T21:31:10.262Z,2.88
2019-02-16T21:33:46.295Z,2.83
2019-02-16T21:36:16.580Z,2.80
2019-02-16T21:39:03.697Z,2.77
2019-02-16T21:41:49.248Z,2.74
2019-02-16T21:44:22.485Z,2.72
2019-02-16T21:47:02.833Z,2.67
2019-02-16T21:49:33.070Z,2.66
2019-02-16T21:52:03.391Z,2.64
2019-02-16T21:54:42.546Z,2.61
2019-02-16T21:57:24.787Z,2.59
2019-02-16T22:00:13.026Z,2.57
2019-02-16T22:02:49.156Z,2.54
2019-02-16T22:05:19.552Z,2.51
2019-02-16T22:07:59.256Z,2.48
2019-02-16T22:10:29.752Z,2.44
2019-02-16T22:13:02.568Z,2.40
2019-02-16T22:15:31.424Z,2.37
2019-02-16T22:18:00.044Z,2.34
2019-02-16T22:20:28.694Z,2.32
2019-02-16T22:22:57.346Z,2.28
2019-02-16T22:25:26.041Z,2.25
2019-02-16T22:27:54.682Z,2.23
2019-02-16T22:30:23.414Z,2.20
2019-02-16T22:32:52.084Z,2.17
2019-02-16T22:35:20.768Z,2.15
2019-02-16T22:37:49.494Z,2.14
2019-02-16T22:40:18.280Z,2.14
2019-02-16T22:42:46.930Z,2.11
2019-02-16T22:45:15.579Z,2.09
2019-02-16T22:47:44.196Z,2.09
2019-02-16T22:50:12.883Z,2.09
2019-02-16T22:52:42.118Z,2.07
2019-02-16T22:55:10.846Z,2.07
2019-02-16T22:57:39.497Z,2.07
2019-02-16T23:00:18.764Z,2.05
2019-02-16T23:02:47.680Z,2.05
2019-02-16T23:05:16.386Z,2.04
2019-02-16T23:07:44.993Z,2.05
2019-02-16T23:10:13.942Z,2.08
2019-02-16T23:12:42.559Z,2.08
2019-02-16T23:15:12.333Z,2.09
2019-02-16T23:17:41.061Z,2.09
2019-02-16T23:20:11.565Z,2.09
2019-02-16T23:22:40.815Z,2.09
2019-02-16T23:25:09.635Z,2.06
2019-02-16T23:27:38.384Z,2.06
2019-02-16T23:30:11.753Z,2.05
2019-02-16T23:32:40.610Z,2.04
2019-02-16T23:35:09.744Z,2.02
2019-02-16T23:37:38.379Z,2.00
2019-02-16T23:40:08.500Z,1.99
2019-02-16T23:42:37.294Z,1.97
2019-02-16T23:45:08.611Z,1.96
2019-02-16T23:47:37.237Z,1.94
2019-02-16T23:50:08.653Z,1.93
2019-02-16T23:52:37.300Z,1.92
2019-02-16T23:55:08.805Z,1.92
2019-02-16T23:57:37.475Z,1.91
